createdAt,value
2022-09-09T00:00:38.714Z,91.98
2022-09-09T00:02:02.463Z,92.04
2022-09-09T00:02:58.796Z,91.88
2022-09-09T00:04:16.464Z,92.37
2022-09-09T00:05:17.533Z,92.30
2022-09-09T00:06:19.579Z,91.82
2022-09-09T00:07:06.663Z,91.67
2022-09-09T00:07:55.724Z,91.58
2022-09-09T00:08:48.815Z,91.48
2022-09-09T00:09:42.423Z,91.26
2022-09-09T00:10:35.652Z,91.84
2022-09-09T00:11:37.794Z,91.94
2022-09-09T00:12:43.403Z,91.90
2022-09-09T00:13:36.303Z,91.80
2022-09-09T00:14:44.203Z,92.04
2022-09-09T00:16:05.465Z,92.03
2022-09-09T00:16:57.504Z,91.69
2022-09-09T00:17:50.834Z,91.38
2022-09-09T00:18:46.994Z,91.18
2022-09-09T00:19:54.764Z,91.33
2022-09-09T00:21:16.823Z,91.55
2022-09-09T00:22:22.503Z,92.35
2022-09-09T00:23:16.344Z,92.50
2022-09-09T00:24:19.684Z,93.13
2022-09-09T00:25:18.043Z,93.38
2022-09-09T00:26:13.403Z,93.47
2022-09-09T00:27:13.393Z,93.40
2022-09-09T00:28:00.091Z,93.50
2022-09-09T00:28:58.813Z,93.39
2022-09-09T00:30:15.303Z,93.42
2022-09-09T00:31:15.931Z,93.40
2022-09-09T00:32:14.730Z,93.36
2022-09-09T00:33:05.303Z,93.36
2022-09-09T00:33:51.853Z,93.56
2022-09-09T00:34:49.524Z,93.92
2022-09-09T00:35:39.672Z,93.99
2022-09-09T00:36:27.731Z,94.37
2022-09-09T00:37:15.053Z,94.29
2022-09-09T00:38:07.004Z,94.19
2022-09-09T00:38:58.822Z,93.99
2022-09-09T00:39:49.205Z,94.44
2022-09-09T00:41:05.103Z,94.54
2022-09-09T00:42:04.188Z,94.56
2022-09-09T00:43:00.214Z,95.38
2022-09-09T00:43:55.244Z,95.70
2022-09-09T00:45:03.623Z,95.85
2022-09-09T00:45:50.369Z,95.27
2022-09-09T00:46:47.580Z,95.25
2022-09-09T00:47:44.478Z,95.23
2022-09-09T00:49:10.558Z,95.28
2022-09-09T00:50:25.861Z,95.16
2022-09-09T00:51:31.394Z,95.31
2022-09-09T00:52:29.983Z,95.08
2022-09-09T00:53:34.857Z,94.99
2022-09-09T00:54:49.164Z,95.04
2022-09-09T00:55:53.923Z,95.28
2022-09-09T00:56:48.694Z,95.45
2022-09-09T00:57:39.020Z,95.42
2022-09-09T00:58:25.783Z,95.29
2022-09-09T00:59:28.206Z,95.09
2022-09-09T01:00:28.203Z,94.97
2022-09-09T01:01:15.250Z,95.37
2022-09-09T01:02:02.850Z,96.00
2022-09-09T01:03:26.594Z,95.84
2022-09-09T01:04:18.191Z,96.18
2022-09-09T01:05:25.593Z,96.51
2022-09-09T01:06:26.744Z,96.64
2022-09-09T01:07:20.144Z,96.44
2022-09-09T01:08:29.371Z,95.91
2022-09-09T01:09:28.043Z,95.77
2022-09-09T01:10:43.385Z,95.58
2022-09-09T01:11:53.603Z,95.38
2022-09-09T01:12:43.192Z,95.95
2022-09-09T01:13:34.884Z,96.15
2022-09-09T01:14:34.036Z,96.02
2022-09-09T01:15:40.023Z,95.86
2022-09-09T01:16:27.543Z,96.07
2022-09-09T01:17:28.643Z,96.26
2022-09-09T01:18:18.974Z,96.57
2022-09-09T01:19:08.562Z,96.49
2022-09-09T01:20:07.484Z,96.26
2022-09-09T01:21:29.444Z,96.38
2022-09-09T01:22:57.343Z,96.60
2022-09-09T01:24:25.353Z,96.72
2022-09-09T01:25:21.314Z,97.13
2022-09-09T01:26:16.803Z,96.88
2022-09-09T01:27:05.223Z,96.71
2022-09-09T01:27:52.869Z,96.78
2022-09-09T01:28:40.234Z,96.89
2022-09-09T01:29:26.974Z,97.04
2022-09-09T01:30:15.912Z,97.05
2022-09-09T01:31:04.715Z,97.13
2022-09-09T01:32:03.681Z,96.98
2022-09-09T01:32:52.603Z,97.08
2022-09-09T01:33:39.287Z,97.23
2022-09-09T01:34:29.212Z,97.39
2022-09-09T01:35:48.203Z,97.42
2022-09-09T01:36:42.203Z,97.45
2022-09-09T01:37:28.946Z,97.54
2022-09-09T01:38:15.933Z,97.36
2022-09-09T01:39:03.164Z,97.36
2022-09-09T01:39:49.937Z,97.69
2022-09-09T01:40:36.934Z,97.48
2022-09-09T01:41:23.723Z,97.21
2022-09-09T01:42:12.403Z,97.09
2022-09-09T01:42:59.243Z,97.09
2022-09-09T01:43:46.004Z,97.39
2022-09-09T01:44:32.953Z,97.84
2022-09-09T01:45:20.061Z,97.63
2022-09-09T01:46:06.881Z,97.27
2022-09-09T01:46:53.663Z,97.49
2022-09-09T01:47:40.463Z,97.66
2022-09-09T01:48:28.355Z,97.57
2022-09-09T01:49:15.154Z,97.43
2022-09-09T01:50:02.843Z,97.29
2022-09-09T01:50:50.173Z,97.24
2022-09-09T01:51:39.614Z,97.41
2022-09-09T01:52:26.543Z,97.38
2022-09-09T01:53:14.243Z,97.32
2022-09-09T01:54:01.043Z,97.40
2022-09-09T01:54:47.844Z,97.37
2022-09-09T01:55:41.624Z,97.28
2022-09-09T01:56:28.302Z,97.27
2022-09-09T01:57:26.631Z,97.27
2022-09-09T01:58:50.502Z,97.06
2022-09-09T01:59:49.601Z,97.29
2022-09-09T02:00:38.810Z,97.38
2022-09-09T02:01:37.276Z,97.22
2022-09-09T02:02:35.563Z,97.11
2022-09-09T02:03:28.543Z,96.99
2022-09-09T02:04:39.783Z,97.47
2022-09-09T02:05:29.435Z,98.28
2022-09-09T02:06:34.122Z,98.71
2022-09-09T02:07:29.804Z,99.11
2022-09-09T02:08:20.063Z,99.47
2022-09-09T02:09:08.774Z,99.86
2022-09-09T02:10:03.924Z,100.00
2022-09-09T02:10:58.004Z,100.00
2022-09-09T02:11:45.904Z,100.00
2022-09-09T02:12:33.023Z,100.00
2022-09-09T02:13:21.347Z,100.00
2022-09-09T02:14:14.091Z,100.00
2022-09-09T02:15:05.294Z,99.84
2022-09-09T02:16:30.696Z,99.87
2022-09-09T02:17:22.523Z,100.00
2022-09-09T02:18:11.553Z,99.35
2022-09-09T02:19:10.143Z,99.28
2022-09-09T02:20:05.433Z,99.55
2022-09-09T02:20:53.318Z,99.62
2022-09-09T02:21:41.566Z,99.64
2022-09-09T02:22:29.612Z,99.73
2022-09-09T02:23:16.515Z,99.93
2022-09-09T02:24:06.074Z,99.67
2022-09-09T02:24:56.092Z,99.24
2022-09-09T02:25:43.384Z,99.19
2022-09-09T02:26:30.144Z,99.01
2022-09-09T02:27:18.004Z,98.98
2022-09-09T02:28:07.862Z,98.95
2022-09-09T02:28:56.833Z,99.14
2022-09-09T02:29:45.566Z,99.35
2022-09-09T02:30:33.668Z,99.68
2022-09-09T02:31:23.363Z,99.83
2022-09-09T02:32:22.445Z,100.00
2022-09-09T02:33:11.723Z,100.00
2022-09-09T02:34:01.543Z,100.00
2022-09-09T02:34:55.273Z,100.00
2022-09-09T02:35:43.813Z,99.90
2022-09-09T02:36:34.510Z,99.86
2022-09-09T02:37:26.114Z,99.95
2022-09-09T02:38:15.091Z,99.82
2022-09-09T02:39:02.972Z,99.58
2022-09-09T02:39:49.709Z,99.85
2022-09-09T02:40:36.403Z,99.90
2022-09-09T02:41:29.223Z,99.85
2022-09-09T02:42:16.052Z,99.70
2022-09-09T02:43:04.144Z,99.48
2022-09-09T02:43:50.906Z,99.43
2022-09-09T02:44:38.353Z,99.41
2022-09-09T02:45:33.521Z,99.29
2022-09-09T02:46:20.244Z,99.37
2022-09-09T02:47:37.624Z,99.45
2022-09-09T02:48:59.905Z,99.04
2022-09-09T02:50:07.954Z,98.71
2022-09-09T02:51:07.557Z,98.23
2022-09-09T02:52:03.610Z,97.58
2022-09-09T02:53:11.265Z,97.76
2022-09-09T02:54:09.782Z,97.68
2022-09-09T02:55:00.923Z,97.62
2022-09-09T02:55:59.484Z,97.81
2022-09-09T02:56:58.532Z,97.93
2022-09-09T02:57:48.222Z,98.13
2022-09-09T02:58:35.064Z,98.37
2022-09-09T02:59:22.861Z,98.28
2022-09-09T03:00:10.926Z,98.30
2022-09-09T03:00:59.070Z,98.16
2022-09-09T03:01:46.205Z,98.62
2022-09-09T03:02:32.914Z,98.82
2022-09-09T03:03:20.874Z,98.88
2022-09-09T03:04:07.653Z,99.24
2022-09-09T03:04:54.343Z,99.66
2022-09-09T03:05:42.930Z,99.77
2022-09-09T03:06:31.395Z,99.72
2022-09-09T03:07:18.883Z,99.92
2022-09-09T03:08:06.656Z,100.00
2022-09-09T03:08:53.594Z,99.63
2022-09-09T03:09:40.274Z,98.91
2022-09-09T03:10:27.056Z,99.01
2022-09-09T03:11:15.184Z,99.03
2022-09-09T03:12:02.073Z,99.15
2022-09-09T03:12:48.764Z,99.21
2022-09-09T03:13:35.473Z,99.38
2022-09-09T03:14:25.684Z,99.64
2022-09-09T03:15:12.425Z,99.96
2022-09-09T03:15:59.175Z,100.00
2022-09-09T03:16:47.451Z,100.00
2022-09-09T03:17:35.364Z,100.00
2022-09-09T03:18:22.384Z,100.00
2022-09-09T03:19:09.133Z,100.00
2022-09-09T03:19:56.207Z,100.00
2022-09-09T03:20:43.206Z,100.00
2022-09-09T03:21:30.113Z,100.00
2022-09-09T03:22:16.915Z,100.00
2022-09-09T03:23:03.954Z,100.00
2022-09-09T03:23:50.663Z,100.00
2022-09-09T03:24:37.352Z,100.00
2022-09-09T03:25:27.377Z,100.00
2022-09-09T03:26:16.192Z,100.00
2022-09-09T03:27:02.878Z,100.00
2022-09-09T03:27:50.803Z,100.00
2022-09-09T03:28:37.519Z,100.00
2022-09-09T03:29:24.314Z,100.00
2022-09-09T03:30:11.863Z,100.00
2022-09-09T03:31:02.514Z,100.00
2022-09-09T03:31:49.194Z,100.00
2022-09-09T03:32:36.054Z,100.00
2022-09-09T03:33:22.763Z,100.00
2022-09-09T03:34:09.464Z,100.00
2022-09-09T03:34:56.161Z,99.79
2022-09-09T03:35:49.883Z,99.76
2022-09-09T03:36:37.604Z,99.80
2022-09-09T03:37:24.334Z,99.95
2022-09-09T03:38:11.824Z,100.00
2022-09-09T03:38:59.123Z,100.00
2022-09-09T03:39:46.136Z,100.00
2022-09-09T03:40:32.892Z,100.00
2022-09-09T03:41:19.684Z,99.89
2022-09-09T03:42:06.833Z,99.62
2022-09-09T03:42:53.763Z,99.44
2022-09-09T03:43:40.694Z,99.30
2022-09-09T03:44:27.404Z,99.39
2022-09-09T03:45:14.115Z,99.48
2022-09-09T03:46:01.030Z,99.46
2022-09-09T03:46:47.924Z,99.49
2022-09-09T03:47:34.694Z,99.47
2022-09-09T03:48:21.445Z,99.46
2022-09-09T03:49:08.206Z,99.45
2022-09-09T03:49:54.882Z,99.65
2022-09-09T03:50:45.984Z,99.92
2022-09-09T03:51:32.723Z,100.00
2022-09-09T03:52:23.525Z,100.00
2022-09-09T03:53:10.603Z,100.00
2022-09-09T03:53:59.219Z,100.00
2022-09-09T03:54:46.155Z,100.00
2022-09-09T03:55:33.612Z,100.00
2022-09-09T03:56:22.563Z,100.00
2022-09-09T03:57:10.804Z,100.00
2022-09-09T03:57:57.474Z,100.00
2022-09-09T03:58:44.293Z,100.00
2022-09-09T03:59:31.594Z,100.00
2022-09-09T04:00:18.434Z,100.00
2022-09-09T04:01:11.591Z,100.00
2022-09-09T04:02:00.278Z,99.64
2022-09-09T04:02:47.134Z,100.00
2022-09-09T04:03:33.844Z,100.00
2022-09-09T04:04:21.253Z,100.00
2022-09-09T04:05:08.247Z,100.00
2022-09-09T04:05:56.504Z,100.00
2022-09-09T04:06:43.263Z,100.00
2022-09-09T04:07:29.967Z,100.00
2022-09-09T04:08:17.024Z,100.00
2022-09-09T04:09:04.445Z,100.00
2022-09-09T04:09:51.283Z,100.00
2022-09-09T04:10:38.367Z,100.00
2022-09-09T04:11:25.654Z,100.00
2022-09-09T04:12:14.338Z,100.00
2022-09-09T04:13:01.044Z,100.00
2022-09-09T04:13:47.834Z,100.00
2022-09-09T04:14:34.563Z,100.00
2022-09-09T04:15:21.274Z,100.00
2022-09-09T04:16:09.370Z,100.00
2022-09-09T04:16:58.602Z,100.00
2022-09-09T04:17:45.315Z,100.00
2022-09-09T04:18:32.578Z,100.00
2022-09-09T04:19:19.304Z,100.00
2022-09-09T04:20:06.594Z,100.00
2022-09-09T04:20:54.275Z,100.00
2022-09-09T04:21:44.066Z,100.00
2022-09-09T04:22:30.784Z,100.00
2022-09-09T04:23:19.793Z,100.00
2022-09-09T04:24:08.143Z,100.00
2022-09-09T04:24:54.873Z,100.00
2022-09-09T04:25:52.523Z,100.00
2022-09-09T04:26:39.245Z,100.00
2022-09-09T04:27:25.964Z,100.00
2022-09-09T04:28:12.713Z,100.00
2022-09-09T04:28:59.797Z,100.00
2022-09-09T04:29:46.484Z,100.00
2022-09-09T04:30:33.163Z,100.00
2022-09-09T04:31:24.814Z,100.00
2022-09-09T04:32:12.682Z,100.00
2022-09-09T04:32:59.363Z,100.00
2022-09-09T04:33:46.096Z,100.00
2022-09-09T04:34:33.905Z,100.00
2022-09-09T04:35:21.255Z,100.00
2022-09-09T04:36:09.003Z,100.00
2022-09-09T04:36:55.863Z,100.00
2022-09-09T04:37:42.575Z,100.00
2022-09-09T04:38:29.305Z,100.00
2022-09-09T04:39:16.226Z,100.00
2022-09-09T04:40:03.916Z,100.00
2022-09-09T04:40:52.686Z,100.00
2022-09-09T04:41:39.614Z,100.00
2022-09-09T04:42:26.524Z,100.00
2022-09-09T04:43:14.599Z,100.00
2022-09-09T04:44:01.949Z,100.00
2022-09-09T04:44:48.624Z,100.00
2022-09-09T04:45:35.379Z,100.00
2022-09-09T04:46:23.842Z,99.74
2022-09-09T04:47:11.232Z,99.68
2022-09-09T04:47:58.464Z,99.59
2022-09-09T04:48:45.266Z,99.58
2022-09-09T04:49:32.583Z,99.44
2022-09-09T04:50:22.024Z,99.40
2022-09-09T04:51:13.516Z,99.45
2022-09-09T04:52:00.238Z,99.08
2022-09-09T04:52:46.945Z,98.64
2022-09-09T04:53:35.453Z,98.53
2022-09-09T04:54:22.535Z,98.83
2022-09-09T04:55:10.884Z,99.17
2022-09-09T04:56:07.993Z,99.31
2022-09-09T04:56:55.993Z,99.19
2022-09-09T04:57:42.743Z,99.06
2022-09-09T04:58:29.530Z,99.09
2022-09-09T04:59:16.294Z,99.04
2022-09-09T05:00:04.495Z,99.01
2022-09-09T05:00:52.972Z,98.99
2022-09-09T05:01:39.816Z,99.16
2022-09-09T05:02:31.004Z,99.36
2022-09-09T05:03:18.304Z,99.40
2022-09-09T05:04:05.075Z,99.29
2022-09-09T05:04:51.813Z,99.25
2022-09-09T05:05:38.613Z,99.09
2022-09-09T05:06:25.650Z,98.59
2022-09-09T05:07:12.375Z,98.55
2022-09-09T05:08:04.083Z,98.25
2022-09-09T05:08:50.847Z,98.23
2022-09-09T05:09:37.560Z,97.99
2022-09-09T05:10:24.396Z,97.91
2022-09-09T05:11:31.365Z,97.86
2022-09-09T05:12:18.107Z,97.69
2022-09-09T05:13:05.733Z,97.42
2022-09-09T05:13:53.204Z,97.51
2022-09-09T05:14:39.903Z,97.41
2022-09-09T05:15:26.723Z,97.21
2022-09-09T05:16:14.983Z,96.44
2022-09-09T05:17:01.753Z,95.87
2022-09-09T05:17:48.687Z,95.90
2022-09-09T05:18:35.426Z,95.98
2022-09-09T05:19:22.154Z,96.01
2022-09-09T05:20:11.290Z,95.70
2022-09-09T05:21:01.633Z,95.50
2022-09-09T05:21:48.453Z,95.49
2022-09-09T05:22:35.136Z,95.97
2022-09-09T05:23:21.865Z,96.09
2022-09-09T05:24:08.702Z,95.82
2022-09-09T05:24:55.378Z,95.75
2022-09-09T05:25:43.534Z,95.70
2022-09-09T05:26:30.916Z,95.51
2022-09-09T05:27:21.311Z,94.99
2022-09-09T05:28:09.067Z,94.87
2022-09-09T05:28:56.402Z,95.01
2022-09-09T05:29:45.629Z,95.46
2022-09-09T05:30:32.283Z,95.77
2022-09-09T05:31:20.224Z,95.41
2022-09-09T05:32:07.020Z,94.87
2022-09-09T05:32:53.674Z,94.58
2022-09-09T05:33:41.836Z,94.39
2022-09-09T05:34:28.615Z,94.35
2022-09-09T05:35:15.814Z,94.40
2022-09-09T05:36:06.417Z,94.54
2022-09-09T05:36:53.803Z,94.84
2022-09-09T05:37:40.947Z,94.87
2022-09-09T05:38:28.893Z,95.04
2022-09-09T05:39:15.705Z,94.91
2022-09-09T05:40:03.106Z,95.00
2022-09-09T05:40:50.445Z,94.87
2022-09-09T05:41:37.165Z,94.58
2022-09-09T05:42:23.924Z,93.81
2022-09-09T05:43:10.755Z,93.32
2022-09-09T05:43:57.616Z,93.33
2022-09-09T05:44:46.014Z,93.12
2022-09-09T05:45:32.733Z,92.97
2022-09-09T05:46:22.575Z,92.56
2022-09-09T05:47:10.774Z,92.25
2022-09-09T05:47:58.363Z,92.28
2022-09-09T05:48:47.533Z,92.21
2022-09-09T05:49:34.247Z,92.06
2022-09-09T05:50:20.994Z,91.74
2022-09-09T05:51:10.384Z,91.60
2022-09-09T05:51:57.224Z,91.60
2022-09-09T05:52:45.693Z,91.59
2022-09-09T05:53:38.933Z,91.45
2022-09-09T05:54:25.618Z,91.37
2022-09-09T05:55:12.331Z,91.27
2022-09-09T05:56:04.644Z,91.08
2022-09-09T05:56:52.094Z,90.82
2022-09-09T05:57:38.844Z,90.09
2022-09-09T05:58:25.763Z,89.70
2022-09-09T05:59:13.739Z,89.32
2022-09-09T06:00:00.670Z,88.62
2022-09-09T06:00:47.544Z,87.28
2022-09-09T06:01:36.319Z,85.14
2022-09-09T06:02:23.206Z,83.16
2022-09-09T06:03:12.523Z,81.41
2022-09-09T06:03:59.383Z,79.79
2022-09-09T06:04:46.103Z,78.34
2022-09-09T06:05:33.097Z,77.79
2022-09-09T06:06:22.552Z,76.84
2022-09-09T06:07:09.316Z,76.95
2022-09-09T06:07:56.293Z,77.36
2022-09-09T06:08:47.633Z,77.22
2022-09-09T06:09:34.595Z,76.63
2022-09-09T06:10:21.564Z,77.05
2022-09-09T06:11:10.644Z,77.48
2022-09-09T06:11:59.345Z,77.56
2022-09-09T06:12:46.308Z,77.34
2022-09-09T06:13:33.445Z,77.42
2022-09-09T06:14:20.352Z,77.54
2022-09-09T06:15:08.294Z,77.56
2022-09-09T06:15:55.068Z,77.81
2022-09-09T06:16:44.295Z,78.23
2022-09-09T06:17:31.212Z,79.20
2022-09-09T06:18:19.803Z,79.77
2022-09-09T06:19:07.473Z,80.04
2022-09-09T06:19:54.793Z,80.57
2022-09-09T06:20:42.078Z,81.17
2022-09-09T06:21:31.577Z,82.65
2022-09-09T06:22:18.242Z,82.78
2022-09-09T06:23:05.026Z,82.87
2022-09-09T06:23:58.939Z,83.43
2022-09-09T06:24:47.033Z,83.66
2022-09-09T06:25:35.465Z,83.75
2022-09-09T06:26:25.182Z,84.11
2022-09-09T06:27:11.985Z,84.45
2022-09-09T06:27:58.886Z,84.47
2022-09-09T06:28:46.715Z,84.56
2022-09-09T06:29:33.384Z,84.79
2022-09-09T06:30:20.504Z,85.34
2022-09-09T06:31:09.346Z,85.64
2022-09-09T06:31:56.241Z,85.81
2022-09-09T06:32:43.970Z,85.84
2022-09-09T06:33:36.144Z,86.20
2022-09-09T06:34:22.895Z,86.09
2022-09-09T06:35:09.824Z,86.04
2022-09-09T06:35:58.214Z,86.07
2022-09-09T06:36:45.214Z,85.94
2022-09-09T06:37:32.232Z,85.72
2022-09-09T06:38:19.744Z,85.50
2022-09-09T06:39:12.193Z,85.23
2022-09-09T06:40:00.548Z,85.17
2022-09-09T06:40:57.665Z,84.51
2022-09-09T06:41:44.358Z,84.35
2022-09-09T06:42:32.665Z,84.20
2022-09-09T06:43:20.747Z,84.24
2022-09-09T06:44:07.772Z,84.07
2022-09-09T06:44:54.513Z,84.06
2022-09-09T06:45:41.212Z,83.81
2022-09-09T06:46:31.443Z,82.84
2022-09-09T06:47:18.279Z,82.20
2022-09-09T06:48:04.964Z,81.26
2022-09-09T06:48:51.605Z,81.31
2022-09-09T06:49:38.343Z,81.08
2022-09-09T06:50:25.023Z,80.93
2022-09-09T06:51:17.584Z,80.73
2022-09-09T06:52:04.377Z,79.57
2022-09-09T06:52:51.167Z,79.35
2022-09-09T06:53:38.823Z,78.57
2022-09-09T06:54:26.471Z,78.97
2022-09-09T06:55:14.284Z,78.48
2022-09-09T06:56:03.203Z,77.65
2022-09-09T06:56:51.096Z,77.38
2022-09-09T06:57:38.131Z,77.51
2022-09-09T06:58:25.015Z,76.75
2022-09-09T06:59:13.368Z,76.99
2022-09-09T07:00:00.209Z,76.42
2022-09-09T07:00:47.046Z,76.32
2022-09-09T07:01:36.048Z,75.86
2022-09-09T07:02:22.922Z,75.53
2022-09-09T07:03:11.314Z,74.58
2022-09-09T07:03:59.990Z,74.68
2022-09-09T07:04:46.811Z,74.61
2022-09-09T07:05:33.675Z,73.62
2022-09-09T07:06:22.923Z,73.47
2022-09-09T07:07:10.886Z,73.41
2022-09-09T07:07:57.582Z,73.61
2022-09-09T07:08:55.791Z,73.72
2022-09-09T07:09:43.573Z,73.58
2022-09-09T07:10:30.263Z,73.77
2022-09-09T07:11:17.413Z,74.07
2022-09-09T07:12:05.434Z,73.48
2022-09-09T07:12:55.903Z,72.94
2022-09-09T07:13:43.311Z,73.79
2022-09-09T07:14:30.123Z,73.04
2022-09-09T07:15:16.862Z,73.15
2022-09-09T07:16:08.680Z,73.35
2022-09-09T07:16:59.315Z,73.57
2022-09-09T07:17:46.464Z,74.04
2022-09-09T07:18:34.488Z,74.39
2022-09-09T07:19:21.293Z,74.71
2022-09-09T07:20:08.399Z,73.81
2022-09-09T07:20:56.280Z,74.41
2022-09-09T07:21:43.363Z,73.97
2022-09-09T07:22:30.202Z,73.73
2022-09-09T07:23:17.372Z,73.35
2022-09-09T07:24:06.241Z,73.92
2022-09-09T07:24:52.987Z,73.96
2022-09-09T07:25:46.593Z,73.24
2022-09-09T07:26:33.363Z,72.93
2022-09-09T07:27:20.143Z,73.65
2022-09-09T07:28:08.665Z,73.79
2022-09-09T07:28:57.559Z,73.83
2022-09-09T07:29:44.322Z,72.48
2022-09-09T07:30:31.075Z,71.61
2022-09-09T07:31:20.213Z,71.56
2022-09-09T07:32:06.954Z,71.41
2022-09-09T07:32:53.853Z,71.12
2022-09-09T07:33:42.021Z,71.03
2022-09-09T07:34:28.734Z,70.99
2022-09-09T07:35:15.601Z,70.83
2022-09-09T07:36:08.313Z,70.20
2022-09-09T07:36:55.398Z,69.11
2022-09-09T07:37:42.374Z,69.33
2022-09-09T07:38:30.353Z,68.91
2022-09-09T07:39:18.696Z,69.08
2022-09-09T07:40:06.899Z,69.86
2022-09-09T07:40:53.663Z,69.33
2022-09-09T07:41:43.393Z,68.59
2022-09-09T07:42:30.301Z,67.92
2022-09-09T07:43:19.963Z,67.12
2022-09-09T07:44:15.453Z,66.85
2022-09-09T07:45:02.146Z,66.59
2022-09-09T07:45:48.893Z,66.10
2022-09-09T07:46:36.433Z,65.91
2022-09-09T07:47:23.904Z,65.67
2022-09-09T07:48:10.685Z,65.86
2022-09-09T07:48:58.045Z,64.74
2022-09-09T07:49:44.784Z,64.81
2022-09-09T07:50:31.554Z,64.98
2022-09-09T07:51:20.933Z,65.18
2022-09-09T07:52:59.765Z,65.05
2022-09-09T07:53:52.903Z,65.65
2022-09-09T07:54:39.662Z,65.43
2022-09-09T07:55:27.510Z,65.33
2022-09-09T07:56:17.865Z,65.11
2022-09-09T07:57:05.469Z,65.01
2022-09-09T07:57:52.726Z,64.81
2022-09-09T07:58:41.243Z,65.09
2022-09-09T07:59:31.511Z,64.97
2022-09-09T08:00:19.954Z,65.20
2022-09-09T08:01:21.809Z,65.57
2022-09-09T08:02:10.706Z,64.65
2022-09-09T08:02:57.559Z,64.42
2022-09-09T08:03:45.414Z,64.39
2022-09-09T08:04:32.125Z,64.59
2022-09-09T08:05:19.334Z,64.92
2022-09-09T08:06:08.254Z,65.22
2022-09-09T08:06:58.187Z,65.22
2022-09-09T08:07:45.365Z,65.07
2022-09-09T08:08:32.047Z,65.10
2022-09-09T08:09:18.997Z,65.27
2022-09-09T08:10:06.054Z,65.71
2022-09-09T08:10:53.373Z,65.38
2022-09-09T08:11:40.523Z,64.51
2022-09-09T08:12:27.241Z,64.97
2022-09-09T08:13:18.421Z,64.69
2022-09-09T08:14:05.803Z,65.17
2022-09-09T08:14:53.006Z,65.51
2022-09-09T08:15:43.271Z,65.69
2022-09-09T08:16:32.232Z,65.54
2022-09-09T08:17:18.993Z,65.24
2022-09-09T08:18:06.584Z,65.58
2022-09-09T08:18:53.984Z,65.86
2022-09-09T08:19:40.763Z,65.10
2022-09-09T08:20:28.103Z,66.34
2022-09-09T08:21:20.713Z,66.41
2022-09-09T08:22:08.886Z,66.01
2022-09-09T08:22:56.794Z,66.01
2022-09-09T08:23:44.672Z,65.51
2022-09-09T08:24:31.734Z,65.56
2022-09-09T08:25:18.648Z,65.39
2022-09-09T08:26:25.284Z,64.89
2022-09-09T08:27:12.084Z,64.50
2022-09-09T08:27:58.783Z,64.71
2022-09-09T08:28:45.574Z,64.18
2022-09-09T08:29:32.333Z,64.67
2022-09-09T08:30:19.207Z,63.79
2022-09-09T08:31:08.117Z,63.86
2022-09-09T08:31:58.348Z,63.75
2022-09-09T08:32:46.071Z,63.82
2022-09-09T08:33:34.713Z,64.30
2022-09-09T08:34:22.542Z,64.06
2022-09-09T08:35:09.901Z,64.44
2022-09-09T08:35:57.182Z,63.60
2022-09-09T08:36:46.148Z,63.10
2022-09-09T08:37:33.245Z,63.24
2022-09-09T08:38:19.902Z,63.69
2022-09-09T08:39:08.084Z,63.58
2022-09-09T08:39:55.443Z,64.31
2022-09-09T08:40:44.843Z,63.53
2022-09-09T08:41:56.460Z,64.46
2022-09-09T08:42:48.023Z,64.75
2022-09-09T08:43:34.872Z,63.86
2022-09-09T08:44:28.823Z,63.00
2022-09-09T08:45:21.465Z,63.73
2022-09-09T08:46:14.939Z,64.14
2022-09-09T08:47:23.908Z,64.39
2022-09-09T08:48:14.473Z,63.93
2022-09-09T08:49:23.588Z,64.65
2022-09-09T08:50:25.914Z,64.87
2022-09-09T08:51:14.054Z,64.46
2022-09-09T08:52:01.123Z,65.07
2022-09-09T08:53:23.619Z,65.06
2022-09-09T08:54:11.043Z,64.25
2022-09-09T08:55:30.015Z,64.00
2022-09-09T08:56:25.503Z,63.94
2022-09-09T08:57:16.212Z,63.69
2022-09-09T08:58:18.824Z,62.72
2022-09-09T08:59:06.381Z,63.05
2022-09-09T08:59:54.784Z,63.05
2022-09-09T09:00:44.933Z,62.06
2022-09-09T09:01:43.546Z,61.64
2022-09-09T09:02:47.690Z,62.11
2022-09-09T09:03:58.463Z,62.40
2022-09-09T09:05:21.450Z,61.71
2022-09-09T09:06:18.265Z,61.42
2022-09-09T09:07:08.502Z,62.09
2022-09-09T09:08:07.515Z,61.75
2022-09-09T09:09:17.654Z,61.09
2022-09-09T09:10:41.279Z,60.13
2022-09-09T09:11:38.914Z,61.20
2022-09-09T09:12:28.522Z,60.69
2022-09-09T09:13:24.193Z,58.55
2022-09-09T09:14:18.753Z,58.22
2022-09-09T09:15:29.454Z,58.93
2022-09-09T09:16:33.629Z,59.21
2022-09-09T09:17:21.889Z,58.75
2022-09-09T09:18:13.645Z,59.77
2022-09-09T09:19:01.195Z,60.26
2022-09-09T09:19:49.422Z,59.30
2022-09-09T09:21:04.764Z,58.39
2022-09-09T09:22:32.263Z,57.88
2022-09-09T09:23:27.349Z,55.96
2022-09-09T09:24:28.543Z,56.46
2022-09-09T09:25:25.274Z,56.72
2022-09-09T09:26:13.116Z,56.80
2022-09-09T09:27:08.824Z,56.79
2022-09-09T09:28:18.556Z,57.30
2022-09-09T09:29:13.191Z,57.75
2022-09-09T09:31:13.466Z,58.06
2022-09-09T09:32:03.156Z,56.73
2022-09-09T09:32:59.663Z,56.66
2022-09-09T09:33:53.959Z,56.58
2022-09-09T09:34:40.944Z,56.83
2022-09-09T09:35:27.865Z,56.96
2022-09-09T09:36:17.874Z,57.52
2022-09-09T09:37:15.891Z,56.72
2022-09-09T09:40:22.303Z,57.43
2022-09-09T09:41:09.062Z,55.85
2022-09-09T09:41:56.444Z,55.72
2022-09-09T09:43:00.803Z,55.76
2022-09-09T09:43:55.085Z,55.89
2022-09-09T09:44:41.934Z,56.21
2022-09-09T09:45:35.254Z,56.19
2022-09-09T09:46:43.664Z,54.45
2022-09-09T09:47:30.524Z,53.97
2022-09-09T09:48:17.285Z,54.42
2022-09-09T09:49:06.775Z,54.84
2022-09-09T09:49:53.763Z,53.98
2022-09-09T09:51:08.794Z,54.06
2022-09-09T09:52:01.875Z,54.51
2022-09-09T09:52:56.948Z,54.81
2022-09-09T09:53:44.040Z,56.13
2022-09-09T09:54:43.213Z,56.27
2022-09-09T09:55:32.265Z,54.87
2022-09-09T09:56:28.244Z,53.73
2022-09-09T09:57:18.257Z,53.12
2022-09-09T09:58:08.385Z,53.22
2022-09-09T09:58:55.742Z,52.73
2022-09-09T09:59:42.623Z,52.99
2022-09-09T10:00:29.392Z,53.21
2022-09-09T10:01:22.171Z,54.15
2022-09-09T10:02:20.733Z,55.04
2022-09-09T10:03:38.597Z,54.42
2022-09-09T10:04:25.591Z,54.16
2022-09-09T10:05:37.674Z,53.82
2022-09-09T10:06:34.853Z,53.52
2022-09-09T10:07:23.095Z,53.62
2022-09-09T10:08:10.416Z,52.30
2022-09-09T10:08:57.517Z,51.94
2022-09-09T10:09:44.413Z,52.62
2022-09-09T10:10:57.103Z,52.61
2022-09-09T10:12:12.515Z,52.47
2022-09-09T10:13:10.394Z,54.00
2022-09-09T10:14:12.546Z,53.80
2022-09-09T10:15:14.346Z,53.51
2022-09-09T10:16:32.105Z,52.91
2022-09-09T10:17:43.306Z,52.19
2022-09-09T10:18:51.513Z,51.66
2022-09-09T10:19:38.882Z,52.63
2022-09-09T10:20:37.345Z,51.44
2022-09-09T10:21:46.343Z,52.16
2022-09-09T10:22:35.363Z,51.01
2022-09-09T10:23:28.458Z,52.74
2022-09-09T10:24:24.415Z,53.39
2022-09-09T10:25:19.934Z,51.32
2022-09-09T10:26:12.309Z,51.49
2022-09-09T10:27:21.306Z,51.30
2022-09-09T10:28:38.194Z,51.48
2022-09-09T10:29:28.344Z,50.74
2022-09-09T10:30:17.645Z,50.78
2022-09-09T10:31:05.050Z,51.38
2022-09-09T10:32:07.214Z,51.78
2022-09-09T10:32:56.996Z,51.54
2022-09-09T10:34:05.593Z,51.51
2022-09-09T10:35:19.263Z,51.94
2022-09-09T10:36:20.683Z,52.49
2022-09-09T10:37:39.123Z,52.53
2022-09-09T10:38:44.503Z,53.04
2022-09-09T10:39:42.157Z,52.96
2022-09-09T10:40:35.985Z,52.98
2022-09-09T10:41:36.953Z,54.64
2022-09-09T10:42:29.685Z,53.18
2022-09-09T10:43:41.064Z,52.12
2022-09-09T10:45:03.329Z,53.09
2022-09-09T10:46:15.786Z,53.31
2022-09-09T10:47:11.123Z,51.63
2022-09-09T10:48:36.612Z,52.64
2022-09-09T10:49:45.154Z,52.12
2022-09-09T10:51:03.453Z,51.75
2022-09-09T10:52:01.278Z,50.98
2022-09-09T10:53:09.474Z,49.37
2022-09-09T10:54:15.185Z,48.77
2022-09-09T10:55:08.523Z,48.97
2022-09-09T10:56:01.272Z,49.14
2022-09-09T10:56:54.613Z,49.35
2022-09-09T10:57:53.543Z,49.04
2022-09-09T10:58:56.403Z,48.65
2022-09-09T10:59:48.513Z,48.38
2022-09-09T11:00:48.443Z,48.33
2022-09-09T11:01:48.376Z,47.58
2022-09-09T11:02:35.884Z,47.23
2022-09-09T11:03:28.133Z,47.34
2022-09-09T11:04:28.489Z,46.90
2022-09-09T11:05:25.674Z,47.88
2022-09-09T11:06:20.937Z,46.13
2022-09-09T11:07:12.105Z,46.27
2022-09-09T11:08:02.631Z,46.73
2022-09-09T11:08:53.803Z,47.39
2022-09-09T11:09:49.633Z,46.04
2022-09-09T11:10:42.304Z,46.25